Time;durP1;ratioP1;P1;durP2;ratioP2;P2;SDS_P1;SDS_P2;PMS_P1;PMS_P2;Temp;Humidity;BMP_temperature;BMP_pressure;BME280_temperature;BME280_humidity;BME280_pressure;Samples;Min_cycle;Max_cycle;Signal;HPM_P1;HPM_P2
2023/09/24 00:01:35;;;;;;;0.20;0.10;;;;;;;;;;4967017;28;20137;-81
2023/09/24 00:04:01;;;;;;;0.20;0.10;;;;;;;;;;4969609;28;20121;-81
2023/09/24 00:06:27;;;;;;;0.20;0.10;;;;;;;;;;4971603;28;20651;-81
2023/09/24 00:08:53;;;;;;;0.20;0.10;;;;;;;;;;4971724;28;20034;-82
2023/09/24 00:11:19;;;;;;;0.20;0.10;;;;;;;;;;4981934;28;20145;-81
2023/09/24 00:13:45;;;;;;;0.20;0.00;;;;;;;;;;4981059;28;20047;-81
2023/09/24 00:16:11;;;;;;;0.20;0.10;;;;;;;;;;4969725;28;20038;-81
2023/09/24 00:18:38;;;;;;;0.20;0.10;;;;;;;;;;4965918;28;20061;-82
2023/09/24 00:21:05;;;;;;;0.20;0.00;;;;;;;;;;4981767;28;21237;-82
2023/09/24 00:23:31;;;;;;;0.20;0.10;;;;;;;;;;4984117;28;20045;-82
2023/09/24 00:25:57;;;;;;;0.20;0.10;;;;;;;;;;4969946;28;20042;-82
2023/09/24 00:28:26;;;;;;;0.20;0.00;;;;;;;;;;4967132;28;20038;-82
2023/09/24 00:30:54;;;;;;;0.25;0.05;;;;;;;;;;4985432;28;20411;-81
2023/09/24 00:33:21;;;;;;;0.20;0.10;;;;;;;;;;4967910;28;20045;-81
2023/09/24 00:35:47;;;;;;;0.20;0.10;;;;;;;;;;4981776;28;20093;-82
2023/09/24 00:38:13;;;;;;;0.20;0.10;;;;;;;;;;4983769;28;20043;-82
2023/09/24 00:40:39;;;;;;;0.20;0.00;;;;;;;;;;5012683;23;20045;-83
2023/09/24 00:43:24;;;;;;;0.20;0.05;;;;;;;;;;5044991;28;20029;-83
2023/09/24 00:45:50;;;;;;;0.20;0.00;;;;;;;;;;5046860;28;20041;-85
2023/09/24 00:48:16;;;;;;;0.20;0.10;;;;;;;;;;5052096;28;20096;-85
2023/09/24 00:50:42;;;;;;;0.20;0.10;;;;;;;;;;5045517;28;20093;-85
2023/09/24 00:53:08;;;;;;;0.20;0.05;;;;;;;;;;5037255;28;20038;-84
2023/09/24 00:55:34;;;;;;;0.20;0.05;;;;;;;;;;5031521;28;20071;-84
2023/09/24 00:58:03;;;;;;;0.20;0.10;;;;;;;;;;5033312;28;20044;-83
2023/09/24 01:00:33;;;;;;;0.20;0.00;;;;;;;;;;5044348;28;20049;-82
2023/09/24 01:02:59;;;;;;;0.20;0.00;;;;;;;;;;5036221;28;20049;-83
2023/09/24 01:05:27;;;;;;;0.20;0.05;;;;;;;;;;5023195;28;20041;-83
2023/09/24 01:07:54;;;;;;;0.20;0.00;;;;;;;;;;5037356;28;20410;-82
2023/09/24 01:10:25;;;;;;;0.20;0.10;;;;;;;;;;5034774;28;20044;-82
2023/09/24 01:12:55;;;;;;;0.20;0.10;;;;;;;;;;5042507;28;20048;-83
2023/09/24 01:15:23;;;;;;;0.20;0.00;;;;;;;;;;5035573;28;20030;-84
2023/09/24 01:17:49;;;;;;;0.20;0.10;;;;;;;;;;5057633;28;20044;-85
2023/09/24 01:20:15;;;;;;;0.20;0.10;;;;;;;;;;5032687;28;20040;-86
2023/09/24 01:22:41;;;;;;;0.20;0.10;;;;;;;;;;5052527;28;20043;-86
2023/09/24 01:25:07;;;;;;;0.20;0.00;;;;;;;;;;5066154;28;20033;-86
2023/09/24 01:27:36;;;;;;;0.20;0.08;;;;;;;;;;5054719;28;20041;-85
2023/09/24 01:30:06;;;;;;;0.20;0.10;;;;;;;;;;5053880;28;20029;-86
2023/09/24 01:32:32;;;;;;;0.20;0.00;;;;;;;;;;5037688;28;20037;-84
2023/09/24 01:35:06;;;;;;;0.20;0.10;;;;;;;;;;5051835;28;20025;-86
2023/09/24 01:37:34;;;;;;;0.20;0.00;;;;;;;;;;5033976;28;20029;-85
2023/09/24 01:40:06;;;;;;;0.20;0.00;;;;;;;;;;5052389;28;20093;-86
2023/09/24 01:42:34;;;;;;;0.20;0.10;;;;;;;;;;5028603;28;20072;-82
2023/09/24 01:45:00;;;;;;;0.20;0.10;;;;;;;;;;5033671;28;20033;-85
2023/09/24 01:47:26;;;;;;;0.20;0.10;;;;;;;;;;5040135;28;20029;-82
2023/09/24 01:49:52;;;;;;;0.20;0.00;;;;;;;;;;5036579;28;20289;-83
2023/09/24 01:52:19;;;;;;;0.30;0.15;;;;;;;;;;5029272;28;20045;-83
2023/09/24 01:54:47;;;;;;;0.20;0.10;;;;;;;;;;5045129;28;20037;-83
2023/09/24 01:57:13;;;;;;;1.17;0.38;;;;;;;;;;5029548;28;20153;-83
2023/09/24 01:59:39;;;;;;;0.20;0.08;;;;;;;;;;5051508;28;20065;-85
2023/09/24 02:02:06;;;;;;;0.20;0.00;;;;;;;;;;5054890;28;20025;-85
2023/09/24 02:04:33;;;;;;;0.20;0.10;;;;;;;;;;5034588;28;20038;-85
2023/09/24 02:07:00;;;;;;;0.20;0.00;;;;;;;;;;5055922;28;20052;-83
2023/09/24 02:09:26;;;;;;;0.20;0.00;;;;;;;;;;5068609;28;20021;-85
2023/09/24 02:11:54;;;;;;;0.20;0.05;;;;;;;;;;5044112;28;20050;-84
2023/09/24 02:14:20;;;;;;;0.20;0.10;;;;;;;;;;5036870;28;20029;-86
2023/09/24 02:16:46;;;;;;;0.20;0.10;;;;;;;;;;5050553;28;20048;-83
2023/09/24 02:19:14;;;;;;;0.20;0.10;;;;;;;;;;5045317;28;20064;-85
2023/09/24 02:21:40;;;;;;;0.20;0.10;;;;;;;;;;5034730;28;20052;-84
2023/09/24 02:24:07;;;;;;;0.20;0.00;;;;;;;;;;5050897;28;20085;-84
2023/09/24 02:26:33;;;;;;;0.20;0.10;;;;;;;;;;5033864;28;20063;-85
2023/09/24 02:28:59;;;;;;;0.20;0.00;;;;;;;;;;5032234;28;20056;-83
2023/09/24 02:31:26;;;;;;;0.20;0.00;;;;;;;;;;5046848;28;20246;-83
2023/09/24 02:33:52;;;;;;;0.20;0.10;;;;;;;;;;5031033;28;20080;-83
2023/09/24 02:36:18;;;;;;;0.20;0.10;;;;;;;;;;5035538;28;20052;-83
2023/09/24 02:38:44;;;;;;;0.20;0.20;;;;;;;;;;5009127;28;20049;-82
2023/09/24 02:41:11;;;;;;;0.20;0.10;;;;;;;;;;5015059;28;20033;-82
2023/09/24 02:43:37;;;;;;;0.20;0.08;;;;;;;;;;5017668;28;20034;-83
2023/09/24 02:46:05;;;;;;;0.40;0.20;;;;;;;;;;5010575;28;20037;-82
2023/09/24 02:48:32;;;;;;;0.20;0.10;;;;;;;;;;5024178;28;20045;-83
2023/09/24 02:51:05;;;;;;;0.20;0.10;;;;;;;;;;5027898;28;20219;-82
2023/09/24 02:53:31;;;;;;;0.20;0.05;;;;;;;;;;5043724;28;20040;-83
2023/09/24 02:55:58;;;;;;;0.20;0.10;;;;;;;;;;5028564;28;20048;-83
2023/09/24 02:58:24;;;;;;;0.20;0.10;;;;;;;;;;5013026;28;20041;-82
2023/09/24 03:00:50;;;;;;;0.20;0.00;;;;;;;;;;5010850;28;20444;-82
2023/09/24 03:03:16;;;;;;;0.20;0.00;;;;;;;;;;5011671;28;20041;-82
2023/09/24 03:05:43;;;;;;;0.20;0.00;;;;;;;;;;5012311;28;20108;-84
2023/09/24 03:08:09;;;;;;;0.20;0.10;;;;;;;;;;5025678;28;20064;-83
2023/09/24 03:10:36;;;;;;;0.20;0.10;;;;;;;;;;5043610;28;20091;-82
2023/09/24 03:13:04;;;;;;;0.20;0.10;;;;;;;;;;5026882;28;20057;-82
2023/09/24 03:15:30;;;;;;;0.20;0.10;;;;;;;;;;5027056;28;20102;-82
2023/09/24 03:17:56;;;;;;;0.20;0.10;;;;;;;;;;5025780;28;20049;-82
2023/09/24 03:20:22;;;;;;;0.20;0.15;;;;;;;;;;5007975;28;20489;-82
2023/09/24 03:23:01;;;;;;;0.20;0.10;;;;;;;;;;5006436;28;20391;-82
2023/09/24 03:25:27;;;;;;;0.32;0.10;;;;;;;;;;5025646;28;20053;-83
2023/09/24 03:27:55;;;;;;;0.20;0.00;;;;;;;;;;5009652;28;20049;-82
2023/09/24 03:30:22;;;;;;;0.20;0.15;;;;;;;;;;5027997;28;20436;-83
2023/09/24 03:32:48;;;;;;;0.20;0.10;;;;;;;;;;5008996;28;20041;-81
2023/09/24 03:35:17;;;;;;;0.20;0.17;;;;;;;;;;5011942;28;20069;-81
2023/09/24 03:37:43;;;;;;;0.20;0.03;;;;;;;;;;5029427;28;20050;-83
2023/09/24 03:40:14;;;;;;;0.20;0.00;;;;;;;;;;5028331;28;21733;-82
2023/09/24 03:42:40;;;;;;;0.20;0.10;;;;;;;;;;5028994;28;20041;-82
2023/09/24 03:45:08;;;;;;;0.20;0.10;;;;;;;;;;5017473;28;20042;-82
2023/09/24 03:47:34;;;;;;;0.20;0.00;;;;;;;;;;5033798;28;20038;-82
2023/09/24 03:50:00;;;;;;;0.20;0.00;;;;;;;;;;5025388;28;20072;-82
2023/09/24 03:52:26;;;;;;;0.20;0.00;;;;;;;;;;5020450;28;20043;-82
2023/09/24 03:54:52;;;;;;;0.20;0.03;;;;;;;;;;5039712;28;20120;-83
2023/09/24 03:57:19;;;;;;;0.20;0.10;;;;;;;;;;5039689;28;20038;-83
2023/09/24 03:59:45;;;;;;;0.20;0.08;;;;;;;;;;5024917;28;20041;-82
2023/09/24 04:02:11;;;;;;;0.20;0.00;;;;;;;;;;5039204;28;20512;-84
2023/09/24 04:04:37;;;;;;;0.20;0.10;;;;;;;;;;5055899;28;20037;-83
2023/09/24 04:07:04;;;;;;;0.20;0.00;;;;;;;;;;5023293;28;20045;-84
2023/09/24 04:09:32;;;;;;;0.20;0.00;;;;;;;;;;5022237;28;20456;-83
2023/09/24 04:12:02;;;;;;;0.20;0.20;;;;;;;;;;5035436;28;20108;-83
2023/09/24 04:14:29;;;;;;;0.52;0.20;;;;;;;;;;5036780;28;20046;-83
2023/09/24 04:16:58;;;;;;;0.22;0.17;;;;;;;;;;5017340;28;20462;-83
2023/09/24 04:19:24;;;;;;;0.20;0.00;;;;;;;;;;5016723;28;20069;-83
2023/09/24 04:21:52;;;;;;;0.20;0.10;;;;;;;;;;5031161;28;20067;-83
2023/09/24 04:24:18;;;;;;;0.20;0.13;;;;;;;;;;5019900;28;20440;-82
2023/09/24 04:26:46;;;;;;;0.20;0.08;;;;;;;;;;5019688;28;20057;-83
2023/09/24 04:29:12;;;;;;;0.20;0.08;;;;;;;;;;5019502;28;20405;-82
2023/09/24 04:31:38;;;;;;;0.28;0.25;;;;;;;;;;5031855;28;20037;-82
2023/09/24 04:34:04;;;;;;;0.20;0.10;;;;;;;;;;5034764;28;20042;-82
2023/09/24 04:36:30;;;;;;;0.20;0.10;;;;;;;;;;5019144;28;20065;-83
2023/09/24 04:38:56;;;;;;;0.20;0.00;;;;;;;;;;5024336;28;20061;-82
2023/09/24 04:41:24;;;;;;;0.20;0.00;;;;;;;;;;5034157;28;20401;-83
2023/09/24 04:43:50;;;;;;;0.60;0.20;;;;;;;;;;5020525;28;20353;-81
2023/09/24 04:46:16;;;;;;;0.20;0.08;;;;;;;;;;5036182;28;20048;-83
2023/09/24 04:48:42;;;;;;;0.20;0.10;;;;;;;;;;5022091;28;20042;-83
2023/09/24 04:51:08;;;;;;;0.20;0.00;;;;;;;;;;5033119;28;20045;-82
2023/09/24 04:53:34;;;;;;;0.20;0.10;;;;;;;;;;5020429;28;20335;-82
2023/09/24 04:56:06;;;;;;;0.68;0.20;;;;;;;;;;5022551;28;20099;-82
2023/09/24 04:58:32;;;;;;;0.20;0.00;;;;;;;;;;5038889;28;20068;-83
2023/09/24 05:01:08;;;;;;;0.20;0.00;;;;;;;;;;5034290;28;20136;-82
2023/09/24 05:03:35;;;;;;;0.20;0.17;;;;;;;;;;5033541;28;20033;-83
2023/09/24 05:06:03;;;;;;;0.20;0.10;;;;;;;;;;5023437;28;20037;-83
2023/09/24 05:08:29;;;;;;;1.08;1.00;;;;;;;;;;5021258;28;20048;-84
2023/09/24 05:10:55;;;;;;;0.20;0.10;;;;;;;;;;5059099;28;20042;-84
2023/09/24 05:13:21;;;;;;;0.20;0.10;;;;;;;;;;5016205;28;20045;-82
2023/09/24 05:15:53;;;;;;;0.20;0.00;;;;;;;;;;5023783;28;20033;-83
2023/09/24 05:18:19;;;;;;;0.20;0.00;;;;;;;;;;5022619;28;20104;-82
2023/09/24 05:20:45;;;;;;;0.20;0.00;;;;;;;;;;5038196;28;20282;-83
2023/09/24 05:23:11;;;;;;;0.20;0.00;;;;;;;;;;5042479;28;20572;-83
2023/09/24 05:25:37;;;;;;;0.20;0.10;;;;;;;;;;5020283;28;20506;-83
2023/09/24 05:28:04;;;;;;;0.20;0.10;;;;;;;;;;5037950;28;20057;-83
2023/09/24 05:30:30;;;;;;;0.35;0.35;;;;;;;;;;5019224;28;20092;-82
2023/09/24 05:32:56;;;;;;;0.20;0.10;;;;;;;;;;5021337;28;20053;-83
2023/09/24 05:35:25;;;;;;;3.92;0.52;;;;;;;;;;5025668;28;20310;-84
2023/09/24 05:37:51;;;;;;;0.20;0.08;;;;;;;;;;5028807;28;20052;-84
2023/09/24 05:40:17;;;;;;;0.32;0.15;;;;;;;;;;5032031;28;20037;-85
2023/09/24 05:42:43;;;;;;;0.20;0.10;;;;;;;;;;5023504;28;20052;-84
2023/09/24 05:45:09;;;;;;;0.20;0.00;;;;;;;;;;5022428;28;20092;-82
2023/09/24 05:47:36;;;;;;;0.20;0.10;;;;;;;;;;5034436;28;20088;-84
2023/09/24 05:50:03;;;;;;;0.30;0.20;;;;;;;;;;5039987;28;20026;-83
2023/09/24 05:52:29;;;;;;;0.35;0.28;;;;;;;;;;5017840;28;20033;-82
2023/09/24 05:54:57;;;;;;;0.20;0.08;;;;;;;;;;5020433;28;20041;-85
2023/09/24 05:57:27;;;;;;;0.20;0.00;;;;;;;;;;5034482;28;20042;-83
2023/09/24 05:59:57;;;;;;;0.20;0.10;;;;;;;;;;5030648;28;20498;-84
2023/09/24 06:02:24;;;;;;;0.20;0.10;;;;;;;;;;5035053;28;20128;-83
2023/09/24 06:04:50;;;;;;;0.20;0.10;;;;;;;;;;5029577;28;20417;-83
2023/09/24 06:07:16;;;;;;;0.20;0.10;;;;;;;;;;5041035;28;20037;-83
2023/09/24 06:09:42;;;;;;;0.20;0.17;;;;;;;;;;5023412;28;20044;-86
2023/09/24 06:12:08;;;;;;;0.20;0.00;;;;;;;;;;5018510;28;20041;-85
2023/09/24 06:14:34;;;;;;;0.20;0.05;;;;;;;;;;5023264;28;20061;-86
2023/09/24 06:17:00;;;;;;;0.20;0.10;;;;;;;;;;5040697;28;20137;-84
2023/09/24 06:19:26;;;;;;;0.20;0.00;;;;;;;;;;5053930;28;20034;-83
2023/09/24 06:21:54;;;;;;;0.73;0.43;;;;;;;;;;5022831;28;20052;-84
2023/09/24 06:24:20;;;;;;;0.20;0.00;;;;;;;;;;5040500;28;20080;-86
2023/09/24 06:26:47;;;;;;;0.20;0.10;;;;;;;;;;5025454;28;20111;-85
2023/09/24 06:29:14;;;;;;;0.20;0.10;;;;;;;;;;5034294;28;20038;-83
2023/09/24 06:31:40;;;;;;;0.20;0.00;;;;;;;;;;5019526;28;20045;-84
2023/09/24 06:34:06;;;;;;;0.20;0.10;;;;;;;;;;5019848;28;20041;-84
2023/09/24 06:36:32;;;;;;;0.20;0.13;;;;;;;;;;5021108;28;20045;-86
2023/09/24 06:38:59;;;;;;;0.20;0.17;;;;;;;;;;5038870;28;20053;-85
2023/09/24 06:41:26;;;;;;;0.20;0.00;;;;;;;;;;5030803;23;20231;-84
2023/09/24 06:43:59;;;;;;;0.20;0.10;;;;;;;;;;4999862;28;20414;-84
2023/09/24 06:46:38;;;;;;;0.20;0.08;;;;;;;;;;4989806;28;20137;-84
2023/09/24 06:49:04;;;;;;;0.20;0.10;;;;;;;;;;4988778;28;20066;-86
2023/09/24 06:51:33;;;;;;;0.50;0.30;;;;;;;;;;5001161;28;20188;-84
2023/09/24 06:53:59;;;;;;;0.20;0.15;;;;;;;;;;4986090;28;20085;-85
2023/09/24 06:56:25;;;;;;;0.20;0.00;;;;;;;;;;4984654;28;20038;-84
2023/09/24 06:58:51;;;;;;;0.20;0.17;;;;;;;;;;4985108;28;20117;-84
2023/09/24 07:01:17;;;;;;;0.20;0.00;;;;;;;;;;4981083;28;20054;-84
2023/09/24 07:03:43;;;;;;;0.20;0.00;;;;;;;;;;4971618;28;20054;-83
2023/09/24 07:06:10;;;;;;;0.20;0.20;;;;;;;;;;4985708;28;20527;-85
2023/09/24 07:08:36;;;;;;;0.20;0.00;;;;;;;;;;4987376;28;20117;-84
2023/09/24 07:11:20;;;;;;;0.28;0.17;;;;;;;;;;4999619;28;20103;-83
2023/09/24 07:13:47;;;;;;;0.20;0.10;;;;;;;;;;4998594;28;20593;-83
2023/09/24 07:16:13;;;;;;;0.20;0.10;;;;;;;;;;4978309;28;20118;-85
2023/09/24 07:18:39;;;;;;;0.20;0.10;;;;;;;;;;4984405;28;20043;-84
2023/09/24 07:21:06;;;;;;;0.20;0.08;;;;;;;;;;4980019;28;20046;-84
2023/09/24 07:23:32;;;;;;;0.20;0.00;;;;;;;;;;4983659;28;20080;-85
2023/09/24 07:25:58;;;;;;;0.20;0.17;;;;;;;;;;4986177;28;20064;-84
2023/09/24 07:28:25;;;;;;;0.20;0.10;;;;;;;;;;4983158;28;20437;-84
2023/09/24 07:30:54;;;;;;;0.20;0.00;;;;;;;;;;4980971;28;20088;-85
2023/09/24 07:33:21;;;;;;;0.32;0.30;;;;;;;;;;4985583;28;20049;-84
2023/09/24 07:35:47;;;;;;;0.28;0.25;;;;;;;;;;4984248;28;20042;-84
2023/09/24 07:38:13;;;;;;;0.40;0.22;;;;;;;;;;4969013;28;20058;-85
2023/09/24 07:40:39;;;;;;;0.20;0.00;;;;;;;;;;4982125;28;20039;-85
2023/09/24 07:43:08;;;;;;;0.20;0.10;;;;;;;;;;4980998;28;20031;-85
2023/09/24 07:45:35;;;;;;;0.43;0.32;;;;;;;;;;4981494;28;20121;-85
2023/09/24 07:48:01;;;;;;;0.20;0.10;;;;;;;;;;4980464;28;20046;-85
2023/09/24 07:50:27;;;;;;;0.20;0.05;;;;;;;;;;4982261;28;20034;-85
2023/09/24 07:52:55;;;;;;;0.20;0.10;;;;;;;;;;4968424;28;20100;-85
2023/09/24 07:55:21;;;;;;;0.20;0.10;;;;;;;;;;4981189;28;20567;-85
2023/09/24 07:57:47;;;;;;;0.20;0.10;;;;;;;;;;4991197;28;20050;-85
2023/09/24 08:00:13;;;;;;;0.40;0.28;;;;;;;;;;4983093;28;20034;-85
2023/09/24 08:02:39;;;;;;;0.30;0.22;;;;;;;;;;4980146;28;20542;-86
2023/09/24 08:05:05;;;;;;;0.30;0.30;;;;;;;;;;4971511;28;20038;-84
2023/09/24 08:07:32;;;;;;;0.20;0.10;;;;;;;;;;4966399;28;20042;-83
2023/09/24 08:09:58;;;;;;;0.35;0.30;;;;;;;;;;4983280;28;20494;-84
2023/09/24 08:12:24;;;;;;;0.20;0.08;;;;;;;;;;4982074;28;20045;-86
2023/09/24 08:14:50;;;;;;;1.33;0.85;;;;;;;;;;4981336;28;20035;-85
2023/09/24 08:17:16;;;;;;;0.20;0.10;;;;;;;;;;4982607;28;20093;-84
2023/09/24 08:19:42;;;;;;;0.22;0.15;;;;;;;;;;4984626;28;20649;-85
2023/09/24 08:22:09;;;;;;;0.63;0.20;;;;;;;;;;4987108;28;20039;-84
2023/09/24 08:24:35;;;;;;;0.20;0.10;;;;;;;;;;4981908;28;20045;-88
2023/09/24 08:27:01;;;;;;;0.20;0.10;;;;;;;;;;4981968;28;20434;-83
2023/09/24 08:29:28;;;;;;;0.20;0.10;;;;;;;;;;4979951;28;20101;-84
2023/09/24 08:31:54;;;;;;;0.20;0.13;;;;;;;;;;4981078;28;20101;-83
2023/09/24 08:34:20;;;;;;;0.52;0.52;;;;;;;;;;4969546;28;20125;-82
2023/09/24 08:36:46;;;;;;;0.20;0.10;;;;;;;;;;4994197;28;20065;-84
2023/09/24 08:39:14;;;;;;;0.20;0.00;;;;;;;;;;4980514;28;20487;-84
2023/09/24 08:41:43;;;;;;;0.40;0.40;;;;;;;;;;4985526;28;20045;-85
2023/09/24 08:44:13;;;;;;;0.20;0.10;;;;;;;;;;4983325;28;20432;-83
2023/09/24 08:46:40;;;;;;;0.20;0.10;;;;;;;;;;4983148;28;20125;-82
2023/09/24 08:49:06;;;;;;;0.20;0.10;;;;;;;;;;4970546;28;20122;-84
2023/09/24 08:51:33;;;;;;;0.20;0.03;;;;;;;;;;4986154;28;20051;-82
2023/09/24 08:54:00;;;;;;;0.20;0.00;;;;;;;;;;4986196;28;20065;-84
2023/09/24 08:56:26;;;;;;;0.20;0.08;;;;;;;;;;4983445;28;20669;-83
2023/09/24 08:58:53;;;;;;;0.22;0.20;;;;;;;;;;4984550;28;20038;-82
2023/09/24 09:01:20;;;;;;;0.20;0.10;;;;;;;;;;4982226;28;20042;-84
2023/09/24 09:03:46;;;;;;;0.20;0.10;;;;;;;;;;4984439;28;20050;-82
2023/09/24 09:06:29;;;;;;;0.75;0.60;;;;;;;;;;4985689;28;20177;-83
2023/09/24 09:08:56;;;;;;;0.20;0.08;;;;;;;;;;4982614;28;20041;-84
2023/09/24 09:11:22;;;;;;;0.40;0.40;;;;;;;;;;4986896;28;20511;-82
2023/09/24 09:13:49;;;;;;;0.22;0.17;;;;;;;;;;4986926;28;20081;-82
2023/09/24 09:16:16;;;;;;;0.20;0.10;;;;;;;;;;4987785;28;20383;-84
2023/09/24 09:18:42;;;;;;;0.20;0.08;;;;;;;;;;4967012;28;20045;-82
2023/09/24 09:21:08;;;;;;;0.20;0.10;;;;;;;;;;4984247;28;20061;-82
2023/09/24 09:23:43;;;;;;;0.20;0.10;;;;;;;;;;4984054;28;20048;-82
2023/09/24 09:26:09;;;;;;;0.20;0.10;;;;;;;;;;4987000;28;20545;-82
2023/09/24 09:28:36;;;;;;;0.20;0.00;;;;;;;;;;4983770;28;20038;-84
2023/09/24 09:31:11;;;;;;;0.20;0.10;;;;;;;;;;4983688;28;20054;-81
2023/09/24 09:33:39;;;;;;;0.22;0.17;;;;;;;;;;4983381;28;20042;-83
2023/09/24 09:36:19;;;;;;;0.20;0.10;;;;;;;;;;4982095;28;20046;-83
2023/09/24 09:38:45;;;;;;;0.20;0.00;;;;;;;;;;4980928;28;20415;-83
2023/09/24 09:41:12;;;;;;;0.20;0.00;;;;;;;;;;4986784;28;20034;-81
2023/09/24 09:43:39;;;;;;;0.20;0.10;;;;;;;;;;4977437;28;20507;-83
2023/09/24 09:46:07;;;;;;;0.30;0.25;;;;;;;;;;4983271;28;20042;-84
2023/09/24 09:48:34;;;;;;;0.20;0.00;;;;;;;;;;4977050;28;20038;-84
2023/09/24 09:51:03;;;;;;;0.20;0.10;;;;;;;;;;4984892;28;21023;-85
2023/09/24 09:53:32;;;;;;;0.20;0.10;;;;;;;;;;4986886;28;20042;-84
2023/09/24 09:55:59;;;;;;;0.20;0.00;;;;;;;;;;4980311;28;20043;-83
2023/09/24 09:58:29;;;;;;;0.30;0.30;;;;;;;;;;4983137;28;20504;-83
2023/09/24 10:00:55;;;;;;;0.20;0.10;;;;;;;;;;5001081;28;20129;-82
2023/09/24 10:03:21;;;;;;;0.20;0.00;;;;;;;;;;4987757;28;20038;-83
2023/09/24 10:05:48;;;;;;;0.40;0.28;;;;;;;;;;4991531;28;20082;-83
2023/09/24 10:08:36;;;;;;;0.20;0.10;;;;;;;;;;4984408;28;20042;-83
2023/09/24 10:11:04;;;;;;;0.20;0.10;;;;;;;;;;4984394;28;20034;-82
2023/09/24 10:13:49;;;;;;;0.20;0.08;;;;;;;;;;4983764;28;20049;-82
2023/09/24 10:16:24;;;;;;;0.20;0.10;;;;;;;;;;4982100;28;20125;-84
2023/09/24 10:18:54;;;;;;;0.20;0.00;;;;;;;;;;4984929;28;20105;-80
2023/09/24 10:21:32;;;;;;;0.20;0.13;;;;;;;;;;4985001;28;20455;-83
2023/09/24 10:24:19;;;;;;;0.20;0.10;;;;;;;;;;4986050;28;20049;-83
2023/09/24 10:27:03;;;;;;;0.20;0.10;;;;;;;;;;4974759;28;20062;-82
2023/09/24 10:29:55;;;;;;;0.20;0.00;;;;;;;;;;4981901;28;20064;-85
2023/09/24 10:32:25;;;;;;;0.20;0.10;;;;;;;;;;4981129;28;20150;-84
2023/09/24 10:34:54;;;;;;;0.20;0.20;;;;;;;;;;4985747;28;20117;-82
2023/09/24 10:37:21;;;;;;;0.20;0.10;;;;;;;;;;4988118;28;20090;-84
2023/09/24 10:39:59;;;;;;;0.20;0.10;;;;;;;;;;4986914;28;20046;-83
2023/09/24 10:42:30;;;;;;;0.22;0.10;;;;;;;;;;4989625;28;20044;-81
2023/09/24 10:45:09;;;;;;;1.52;0.90;;;;;;;;;;5001573;28;20050;-85
2023/09/24 10:47:42;;;;;;;0.20;0.10;;;;;;;;;;4985511;28;20047;-84
2023/09/24 10:50:12;;;;;;;0.20;0.00;;;;;;;;;;4981967;28;20096;-84
2023/09/24 10:52:55;;;;;;;0.82;0.47;;;;;;;;;;4983220;28;20043;-83
2023/09/24 10:55:30;;;;;;;0.38;0.20;;;;;;;;;;4985584;28;21119;-82
2023/09/24 10:57:56;;;;;;;0.20;0.10;;;;;;;;;;4986100;28;20038;-82
2023/09/24 11:00:25;;;;;;;0.20;0.00;;;;;;;;;;4987560;28;20110;-85
2023/09/24 11:02:58;;;;;;;0.20;0.10;;;;;;;;;;4983198;28;20050;-84
2023/09/24 11:05:24;;;;;;;0.20;0.00;;;;;;;;;;4991038;28;20049;-82
2023/09/24 11:07:51;;;;;;;0.20;0.00;;;;;;;;;;4990544;28;20043;-82
2023/09/24 11:10:20;;;;;;;0.20;0.10;;;;;;;;;;4983167;28;20105;-83
2023/09/24 11:12:50;;;;;;;0.20;0.05;;;;;;;;;;4969121;28;20073;-81
2023/09/24 11:15:18;;;;;;;0.20;0.10;;;;;;;;;;4989835;28;20537;-82
2023/09/24 11:17:47;;;;;;;0.20;0.10;;;;;;;;;;4986450;28;20049;-83
2023/09/24 11:20:17;;;;;;;0.20;0.20;;;;;;;;;;4987585;28;20553;-82
2023/09/24 11:22:43;;;;;;;0.20;0.00;;;;;;;;;;4988131;28;20057;-84
2023/09/24 11:25:13;;;;;;;0.20;0.00;;;;;;;;;;4986433;28;20096;-83
2023/09/24 11:27:50;;;;;;;1.58;0.17;;;;;;;;;;4983936;28;20038;-83
2023/09/24 11:30:17;;;;;;;0.20;0.00;;;;;;;;;;4986004;28;20628;-84
2023/09/24 11:32:43;;;;;;;0.20;0.08;;;;;;;;;;4986189;28;20116;-84
2023/09/24 11:35:09;;;;;;;0.20;0.00;;;;;;;;;;4981855;28;20528;-83
2023/09/24 11:37:54;;;;;;;0.30;0.10;;;;;;;;;;4986054;28;20066;-85
2023/09/24 11:40:23;;;;;;;0.20;0.10;;;;;;;;;;4986556;28;20053;-82
2023/09/24 11:42:53;;;;;;;0.20;0.10;;;;;;;;;;4985958;28;20057;-83
2023/09/24 11:45:50;;;;;;;0.20;0.20;;;;;;;;;;4986400;28;20038;-82
2023/09/24 11:48:17;;;;;;;0.20;0.10;;;;;;;;;;4985274;28;20066;-84
2023/09/24 11:50:48;;;;;;;0.28;0.25;;;;;;;;;;4985887;28;20050;-84
2023/09/24 11:53:15;;;;;;;0.20;0.08;;;;;;;;;;4984583;28;20046;-83
2023/09/24 11:55:41;;;;;;;0.20;0.03;;;;;;;;;;4984793;28;20038;-84
2023/09/24 11:58:08;;;;;;;0.20;0.10;;;;;;;;;;4989416;28;20745;-83
2023/09/24 12:00:43;;;;;;;0.20;0.13;;;;;;;;;;4973255;28;20361;-83
2023/09/24 12:03:09;;;;;;;0.20;0.10;;;;;;;;;;4983752;28;20053;-83
2023/09/24 12:05:35;;;;;;;0.20;0.10;;;;;;;;;;4985494;28;20046;-83
2023/09/24 12:08:03;;;;;;;0.20;0.00;;;;;;;;;;4985649;28;20118;-81
2023/09/24 12:10:29;;;;;;;0.20;0.10;;;;;;;;;;4989204;28;20034;-84
2023/09/24 12:13:01;;;;;;;0.20;0.10;;;;;;;;;;4985339;28;20050;-85
2023/09/24 12:15:27;;;;;;;0.20;0.10;;;;;;;;;;4983209;28;20039;-86
2023/09/24 12:17:55;;;;;;;0.20;0.10;;;;;;;;;;4985806;28;20038;-83
2023/09/24 12:20:21;;;;;;;0.20;0.10;;;;;;;;;;4984974;28;20096;-85
2023/09/24 12:22:47;;;;;;;0.20;0.03;;;;;;;;;;4985304;28;20093;-83
2023/09/24 12:25:14;;;;;;;0.20;0.00;;;;;;;;;;4984219;28;20057;-82
2023/09/24 12:27:40;;;;;;;0.20;0.10;;;;;;;;;;4986370;28;20097;-81
2023/09/24 12:30:08;;;;;;;0.20;0.00;;;;;;;;;;4986420;28;20081;-82
2023/09/24 12:32:35;;;;;;;0.20;0.00;;;;;;;;;;4971312;28;20034;-83
2023/09/24 12:35:04;;;;;;;0.20;0.10;;;;;;;;;;4982255;28;20125;-84
2023/09/24 12:37:31;;;;;;;0.20;0.00;;;;;;;;;;4983430;28;20046;-83
2023/09/24 12:39:57;;;;;;;0.20;0.00;;;;;;;;;;4982354;28;20046;-83
2023/09/24 12:42:25;;;;;;;0.20;0.10;;;;;;;;;;4976371;28;20085;-83
2023/09/24 12:44:51;;;;;;;0.30;0.25;;;;;;;;;;4982101;28;20656;-83
2023/09/24 12:47:17;;;;;;;0.20;0.10;;;;;;;;;;5002948;28;20126;-84
2023/09/24 12:49:43;;;;;;;0.20;0.10;;;;;;;;;;4987035;28;20127;-84
2023/09/24 12:52:12;;;;;;;0.20;0.00;;;;;;;;;;5003226;28;20346;-84
2023/09/24 12:54:41;;;;;;;0.30;0.10;;;;;;;;;;4984795;28;20041;-83
2023/09/24 12:57:09;;;;;;;0.20;0.00;;;;;;;;;;4988090;28;20057;-82
2023/09/24 12:59:41;;;;;;;0.50;0.43;;;;;;;;;;4975045;28;20038;-83
2023/09/24 13:02:07;;;;;;;0.20;0.10;;;;;;;;;;4985525;28;20049;-83
2023/09/24 13:04:34;;;;;;;0.20;0.00;;;;;;;;;;4987236;28;20626;-85
2023/09/24 13:07:00;;;;;;;0.20;0.10;;;;;;;;;;4988914;28;20505;-83
2023/09/24 13:09:26;;;;;;;0.20;0.00;;;;;;;;;;4969369;28;20326;-83
2023/09/24 13:11:58;;;;;;;0.20;0.10;;;;;;;;;;4986694;28;20042;-85
2023/09/24 13:14:24;;;;;;;0.32;0.10;;;;;;;;;;4983384;28;20041;-85
2023/09/24 13:16:52;;;;;;;0.20;0.10;;;;;;;;;;4989317;28;20042;-80
2023/09/24 13:19:18;;;;;;;0.20;0.00;;;;;;;;;;4986818;28;20046;-83
2023/09/24 13:21:44;;;;;;;0.20;0.10;;;;;;;;;;4989265;28;20069;-83
2023/09/24 13:24:10;;;;;;;0.20;0.10;;;;;;;;;;4987490;28;20042;-86
2023/09/24 13:26:39;;;;;;;0.20;0.10;;;;;;;;;;4989120;28;20046;-83
2023/09/24 13:29:06;;;;;;;0.20;0.05;;;;;;;;;;4988602;28;20050;-84
2023/09/24 13:31:32;;;;;;;0.20;0.00;;;;;;;;;;4990228;28;20034;-83
2023/09/24 13:34:03;;;;;;;0.20;0.00;;;;;;;;;;4973819;28;20034;-84
2023/09/24 13:36:30;;;;;;;0.20;0.10;;;;;;;;;;5006555;28;20641;-84
2023/09/24 13:38:56;;;;;;;0.20;0.10;;;;;;;;;;4988633;28;20049;-84
2023/09/24 13:41:22;;;;;;;0.20;0.10;;;;;;;;;;4983640;28;20035;-82
2023/09/24 13:43:51;;;;;;;0.20;0.10;;;;;;;;;;4984352;28;20064;-84
2023/09/24 13:46:17;;;;;;;0.20;0.00;;;;;;;;;;5005556;28;20470;-85
2023/09/24 13:48:43;;;;;;;0.20;0.00;;;;;;;;;;4987705;28;20445;-85
2023/09/24 13:51:09;;;;;;;0.20;0.17;;;;;;;;;;4984048;28;20043;-83
2023/09/24 13:53:35;;;;;;;0.20;0.10;;;;;;;;;;4988987;28;20030;-85
2023/09/24 13:56:09;;;;;;;0.20;0.00;;;;;;;;;;5002521;28;20105;-85
2023/09/24 13:58:35;;;;;;;0.20;0.00;;;;;;;;;;4989080;28;20142;-83
2023/09/24 14:01:03;;;;;;;0.32;0.30;;;;;;;;;;4988165;28;20035;-84
2023/09/24 14:03:29;;;;;;;0.20;0.10;;;;;;;;;;4987397;28;20035;-83
2023/09/24 14:06:15;;;;;;;0.20;0.10;;;;;;;;;;4986121;28;20061;-85
2023/09/24 14:14:13;;;;;;;0.20;0.10;;;;;;;;;;4981687;28;20122;-82
2023/09/24 14:16:41;;;;;;;0.82;0.32;;;;;;;;;;4969991;28;20066;-83
2023/09/24 14:19:07;;;;;;;0.47;0.28;;;;;;;;;;4985777;28;20545;-82
2023/09/24 14:21:34;;;;;;;0.40;0.40;;;;;;;;;;4984791;28;20049;-83
2023/09/24 14:24:00;;;;;;;0.20;0.10;;;;;;;;;;4997770;28;20054;-85
2023/09/24 14:26:28;;;;;;;0.20;0.08;;;;;;;;;;4988094;28;20050;-83
2023/09/24 14:28:55;;;;;;;0.20;0.10;;;;;;;;;;4988106;28;20128;-84
2023/09/24 14:31:22;;;;;;;0.20;0.10;;;;;;;;;;4985418;28;20038;-84
2023/09/24 14:33:48;;;;;;;0.20;0.10;;;;;;;;;;5002310;28;20038;-84
2023/09/24 14:36:14;;;;;;;0.20;0.10;;;;;;;;;;4971504;28;20034;-85
2023/09/24 14:38:40;;;;;;;0.20;0.10;;;;;;;;;;4980022;28;20104;-82
2023/09/24 14:41:07;;;;;;;0.30;0.28;;;;;;;;;;4989548;28;20034;-83
2023/09/24 14:43:34;;;;;;;0.20;0.08;;;;;;;;;;4985140;28;20405;-85
2023/09/24 14:46:01;;;;;;;0.20;0.10;;;;;;;;;;4985993;28;21123;-85
2023/09/24 14:48:30;;;;;;;0.20;0.00;;;;;;;;;;4990575;28;20130;-83
2023/09/24 14:51:00;;;;;;;0.20;0.10;;;;;;;;;;4980216;28;20034;-82
2023/09/24 14:53:27;;;;;;;0.20;0.00;;;;;;;;;;5023561;23;20063;-86